Home PIREPS Pireps

Flight SLR1662

  • Submitted By: Carl Hermans
  • Departure Airport: Ajaccio-Napoleon-Bonaparte (LFKJ)
  • Arrival Airport: Bruxelles National (EBBR)
  • Aircraft: B737-800 (OO-SLR)
  • Flight Time: 01.47
  • Date Submitted: 13/06/2016
  • Status: Accepted
Flight Details
Gross Revenue:
(133 load / € 0.00 per unit
€ 0.00
Fuel Cost:
(3141 fuel used @ 5.1 / unit)
€ 16,019.10

Additional Log Information:

View Log

Aircraft Used in flight is x737-800_v501 Brussels Airlines
18:03Flaps 3 Selected at 10ft and 0kts
18:03 Engine 1 Started
18:03 Engine 2 Started
18:03 Engine 3 Started
18:03 Engine 4 Started
18:03 Strobe Lights ON at 10 AGL
18:03 Navigation Lights ON at 10 AGL
18:03 Beacon Lights ON at 10 AGL
18:03 Brakes are On
18:03 Brakes are Released
18:05 Brakes are On
18:05 Brakes are Released
18:05 Brakes are On
18:05 Brakes are Released
18:06 Brakes are On
18:06 Brakes are Released
18:07 Brakes are On
18:07 Brakes are Released
18:07 Brakes are On
18:07 Brakes are Released
18:07 Brakes are On
18:08 Brakes are Released
18:08 You Took off @ 171 Knots and Flaps at Position 3
Departure Weather
LFKJ 131530Z 24014KT 9999 FEW040 SCT260 23/17 Q1006 NOSIGrn
18:08 Landing Gear Up @ 184 Knots and 60 Feet
18:08Flaps 2 Selected at 660ft and 239kts
18:08Flaps 1 Selected at 710ft and 239kts
18:08Flaps Retracted at 770ft and 240kts
18:11 You exceeded maximum bank angle
18:11 Above FL100 you need to switch of the landing lights
19:36 Below 10000 feet you are not allowed to go over 250 knots
19:41Flaps 1 Selected at 1830ft and 165kts
19:41Flaps 2 Selected at 1820ft and 161kts
19:41Flaps 3 Selected at 1820ft and 160kts
19:41Flaps 4 Selected at 1820ft and 157kts
19:41Flaps 5 Selected at 1820ft and 157kts
19:42 Landing Gear Down @ 146 Knots and 2340 Feet
19:43Flaps 8 Selected at 860ft and 139kts
19:45 You Landed @ 132 Knots and with -650 Vertical Speed
Arrival Weather
EBBR 131720Z 28010KT 9999 SCT019 16/13 Q1002 TEMPO 3000 SHRA BKN014TCUrn
19:45 Your Landing was very hard
19:45 Brakes are On
19:46Flaps 5 Selected at 150ft and 7kts
19:46Flaps 1 Selected at 150ft and 7kts
19:46 Brakes are Released
19:47 Taxi Lights ON at 150 AGL
19:47 Brakes are On
19:48 Brakes are Released
19:48 Brakes are On
19:48 Brakes are Released
19:48 Brakes are On
19:48 Brakes are Released
19:48 Brakes are On
19:48 Brakes are Released
19:48 Brakes are On
19:49 Brakes are Released
19:49 Brakes are On
19:50 Brussels Bel-Track1.0.0.11

Route Map

Corporate About Us Our Team Vacancies Information Fleet Route Network Rules and Regulations Operations Flight Schedules Event Center Tours Partners IVAO Vatsim Acars dev FSCB

fb Users Online Belgium Marc Claus, Belgium ISMAIL SAIF ,
2 Pilot(s) and 189 Guest(s) Online
CMS by phpVMS - Design by Crazycreatives.com - Copyright © 2018 - Brussels Airlines Virtual